createdAt,value
2017-06-28T00:00:11.470Z,25.85
2017-06-28T00:00:52.063Z,25.92
2017-06-28T00:01:32.499Z,25.91
2017-06-28T00:02:13.035Z,25.94
2017-06-28T00:02:53.509Z,25.91
2017-06-28T00:03:34.031Z,26.05
2017-06-28T00:04:14.506Z,25.97
2017-06-28T00:04:55.058Z,25.99
2017-06-28T00:05:35.594Z,25.95
2017-06-28T00:06:16.138Z,25.8
2017-06-28T00:06:56.650Z,25.91
2017-06-28T00:07:37.137Z,25.94
2017-06-28T00:08:17.623Z,25.87
2017-06-28T00:08:58.198Z,25.9
2017-06-28T00:09:38.653Z,25.98
2017-06-28T00:10:19.184Z,26.06
2017-06-28T00:10:59.734Z,25.97
2017-06-28T00:11:40.277Z,25.85
2017-06-28T00:13:34.155Z,25.91
2017-06-28T00:14:14.776Z,25.91
2017-06-28T00:14:55.286Z,25.94
2017-06-28T00:15:35.801Z,25.91
2017-06-28T00:17:28.984Z,26.05
2017-06-28T00:18:09.524Z,25.99
2017-06-28T00:18:50.094Z,25.95
2017-06-28T00:19:30.594Z,25.9
2017-06-28T00:20:11.090Z,25.92
2017-06-28T00:20:51.603Z,25.97
2017-06-28T00:21:32.207Z,25.97
2017-06-28T00:22:12.654Z,25.97
2017-06-28T00:22:53.217Z,26.01
2017-06-28T00:23:33.684Z,26.05
2017-06-28T00:24:14.139Z,25.92
2017-06-28T00:24:54.680Z,25.91
2017-06-28T00:25:35.130Z,25.85
2017-06-28T00:26:15.656Z,25.94
2017-06-28T00:26:56.153Z,25.91
2017-06-28T00:27:36.700Z,25.98
2017-06-28T00:28:17.245Z,26.02
2017-06-28T00:28:57.755Z,25.9
2017-06-28T00:29:38.259Z,26.01
2017-06-28T00:30:18.769Z,26.05
2017-06-28T00:30:59.315Z,25.98
2017-06-28T00:31:39.794Z,26.05
2017-06-28T00:32:20.324Z,26.02
2017-06-28T00:33:00.799Z,26.07
2017-06-28T00:33:41.331Z,26.05
2017-06-28T00:34:21.846Z,26.07
2017-06-28T00:35:02.297Z,26.02
2017-06-28T00:35:42.784Z,26.06
2017-06-28T00:36:23.264Z,26.02
2017-06-28T00:37:03.788Z,26.12
2017-06-28T00:37:44.283Z,26.12
2017-06-28T00:38:24.830Z,26.07
2017-06-28T00:39:05.371Z,26.05
2017-06-28T00:39:45.950Z,25.94
2017-06-28T00:40:27.061Z,26.05
2017-06-28T00:41:07.693Z,26.01
2017-06-28T00:41:48.195Z,25.98
2017-06-28T00:42:28.628Z,25.94
2017-06-28T00:43:09.137Z,26.05
2017-06-28T00:43:49.650Z,26.1
2017-06-28T00:44:30.137Z,26.02
2017-06-28T00:45:10.710Z,26.05
2017-06-28T00:45:51.202Z,26.1
2017-06-28T00:46:31.641Z,26.12
2017-06-28T00:47:12.196Z,26.05
2017-06-28T00:47:52.683Z,26.12
2017-06-28T00:48:33.164Z,26.09
2017-06-28T00:49:13.689Z,26.05
2017-06-28T00:49:54.170Z,26.13
2017-06-28T00:50:34.733Z,26.1
2017-06-28T00:51:15.189Z,26.12
2017-06-28T00:51:55.756Z,26.12
2017-06-28T00:52:36.328Z,26.15
2017-06-28T00:53:16.770Z,26.2
2017-06-28T00:53:57.346Z,26.23
2017-06-28T00:54:37.865Z,26.29
2017-06-28T00:55:18.335Z,26.26
2017-06-28T00:55:58.830Z,26.12
2017-06-28T00:56:39.344Z,26.17
2017-06-28T00:57:19.899Z,26.01
2017-06-28T00:58:00.418Z,25.9
2017-06-28T00:58:41.699Z,25.9
2017-06-28T00:59:23.087Z,25.9
2017-06-28T01:00:06.595Z,25.77
2017-06-28T01:00:47.130Z,25.77
2017-06-28T01:01:27.796Z,25.67
2017-06-28T01:02:08.292Z,25.72
2017-06-28T01:02:48.733Z,25.64
2017-06-28T01:03:29.359Z,25.61
2017-06-28T01:04:09.888Z,25.45
2017-06-28T01:04:50.402Z,25.35
2017-06-28T01:05:32.471Z,25.23
2017-06-28T01:06:13.027Z,25.14
2017-06-28T01:06:54.489Z,25.03
2017-06-28T01:07:35.001Z,25.1
2017-06-28T01:08:15.499Z,25.13
2017-06-28T01:08:56.021Z,25
2017-06-28T01:09:36.591Z,24.98
2017-06-28T01:10:17.135Z,24.68
2017-06-28T01:10:57.638Z,24.62
2017-06-28T01:11:38.197Z,24.49
2017-06-28T01:12:18.763Z,24.47
2017-06-28T01:12:59.222Z,24.34
2017-06-28T01:13:39.775Z,24.31
2017-06-28T01:14:20.307Z,24.27
2017-06-28T01:15:00.759Z,24.28
2017-06-28T01:15:41.293Z,24.31
2017-06-28T01:16:21.781Z,24.25
2017-06-28T01:17:02.272Z,24.16
2017-06-28T01:17:42.823Z,24.12
2017-06-28T01:18:23.374Z,24.18
2017-06-28T01:19:03.890Z,24.02
2017-06-28T01:19:44.395Z,23.76
2017-06-28T01:20:24.931Z,23.78
2017-06-28T01:21:05.442Z,23.75
2017-06-28T01:21:52.548Z,23.66
2017-06-28T01:22:33.010Z,23.57
2017-06-28T01:24:46.304Z,23.35
2017-06-28T01:25:26.843Z,23.4
2017-06-28T01:26:07.502Z,23.25
2017-06-28T01:26:48.008Z,23.23
2017-06-28T01:27:28.524Z,23.19
2017-06-28T01:28:09.042Z,23.35
2017-06-28T01:28:49.532Z,23.4
2017-06-28T01:29:30.103Z,23.38
2017-06-28T01:30:10.607Z,23.46
2017-06-28T01:30:51.152Z,23.53
2017-06-28T01:31:31.588Z,23.38
2017-06-28T01:32:12.065Z,23.48
2017-06-28T01:32:52.592Z,23.46
2017-06-28T01:33:33.139Z,23.53
2017-06-28T01:34:13.654Z,23.5
2017-06-28T01:34:54.204Z,23.38
2017-06-28T01:35:34.810Z,23.31
2017-06-28T01:36:15.376Z,23.38
2017-06-28T01:36:55.907Z,23.32
2017-06-28T01:37:36.409Z,23.22
2017-06-28T01:38:16.995Z,23.19
2017-06-28T01:38:57.492Z,23.23
2017-06-28T01:39:38.009Z,23.22
2017-06-28T01:40:18.515Z,23.31
2017-06-28T01:40:59.094Z,23.23
2017-06-28T01:41:39.514Z,23.31
2017-06-28T01:42:20.014Z,23.25
2017-06-28T01:43:00.555Z,23.27
2017-06-28T01:43:41.105Z,23.25
2017-06-28T01:44:21.660Z,23.22
2017-06-28T01:45:02.182Z,23.25
2017-06-28T01:45:42.688Z,23.17
2017-06-28T01:46:23.155Z,23.17
2017-06-28T01:47:03.723Z,23.16
2017-06-28T01:47:44.229Z,23.17
2017-06-28T01:48:24.742Z,23.17
2017-06-28T01:49:05.289Z,23.12
2017-06-28T01:49:45.802Z,22.98
2017-06-28T01:50:26.317Z,23.01
2017-06-28T01:51:06.926Z,23
2017-06-28T01:51:47.454Z,23.15
2017-06-28T01:52:27.935Z,23.04
2017-06-28T01:53:08.531Z,22.97
2017-06-28T01:53:49.009Z,23.01
2017-06-28T01:54:29.508Z,22.98
2017-06-28T01:55:10.013Z,23
2017-06-28T01:55:50.518Z,22.94
2017-06-28T01:56:31.010Z,22.97
2017-06-28T01:57:11.495Z,23
2017-06-28T01:57:52.013Z,22.92
2017-06-28T01:58:32.580Z,22.91
2017-06-28T01:59:13.102Z,22.86
2017-06-28T01:59:53.555Z,22.8
2017-06-28T02:00:34.105Z,22.6
2017-06-28T02:01:30.614Z,22.75
2017-06-28T02:02:11.099Z,22.76
2017-06-28T02:02:51.659Z,22.85
2017-06-28T02:03:32.136Z,22.67
2017-06-28T02:04:12.710Z,22.79
2017-06-28T02:06:10.825Z,22.88
2017-06-28T02:06:51.350Z,23
2017-06-28T02:07:34.792Z,22.98
2017-06-28T02:08:15.873Z,23.01
2017-06-28T02:08:56.375Z,22.83
2017-06-28T02:09:36.892Z,22.77
2017-06-28T02:10:17.420Z,22.95
2017-06-28T02:10:58.001Z,23.01
2017-06-28T02:11:38.444Z,23.1
2017-06-28T02:12:18.967Z,23.09
2017-06-28T02:12:59.517Z,23.25
2017-06-28T02:13:40.009Z,23.27
2017-06-28T02:14:20.546Z,23.22
2017-06-28T02:15:01.022Z,23.15
2017-06-28T02:15:41.611Z,23.31
2017-06-28T02:16:22.066Z,23.23
2017-06-28T02:17:03.311Z,23.31
2017-06-28T02:17:43.878Z,23.33
2017-06-28T02:18:24.371Z,23.42
2017-06-28T02:19:04.874Z,23.4
2017-06-28T02:19:45.360Z,23.39
2017-06-28T02:20:25.878Z,23.42
2017-06-28T02:21:06.445Z,23.46
2017-06-28T02:21:47.005Z,23.35
2017-06-28T02:22:27.509Z,23.39
2017-06-28T02:23:08.129Z,23.31
2017-06-28T02:23:48.700Z,23.36
2017-06-28T02:24:29.212Z,23.22
2017-06-28T02:25:11.612Z,23.27
2017-06-28T02:25:53.900Z,23.27
2017-06-28T02:26:34.406Z,23.13
2017-06-28T02:27:14.936Z,23.12
2017-06-28T02:28:10.113Z,23.22
2017-06-28T02:28:50.698Z,23.15
2017-06-28T02:29:31.269Z,23.2
2017-06-28T02:30:11.884Z,23.16
2017-06-28T02:31:59.904Z,23.28
2017-06-28T02:32:43.785Z,23.35
2017-06-28T02:33:26.208Z,23.35
2017-06-28T02:34:16.178Z,23.32
2017-06-28T02:34:56.704Z,23.38
2017-06-28T02:35:37.223Z,23.38
2017-06-28T02:36:17.804Z,23.32
2017-06-28T02:36:58.348Z,23.32
2017-06-28T02:37:38.769Z,23.28
2017-06-28T02:38:22.092Z,23.27
2017-06-28T02:39:02.586Z,23.23
2017-06-28T02:39:42.256Z,23.1
2017-06-28T02:40:25.549Z,23.15
2017-06-28T02:41:06.097Z,23.12
2017-06-28T02:41:46.616Z,23.13
2017-06-28T02:42:27.027Z,23.13
2017-06-28T02:43:07.636Z,23.13
2017-06-28T02:43:48.172Z,23.13
2017-06-28T02:44:28.657Z,23.16
2017-06-28T02:45:09.140Z,23.12
2017-06-28T02:45:49.613Z,23.13
2017-06-28T02:46:30.111Z,23.16
2017-06-28T02:47:10.626Z,23.15
2017-06-28T02:47:51.122Z,23.12
2017-06-28T02:48:31.630Z,23.15
2017-06-28T02:49:12.172Z,23.22
2017-06-28T02:49:52.668Z,23.2
2017-06-28T02:50:33.151Z,23.13
2017-06-28T02:51:13.665Z,23.13
2017-06-28T02:51:54.205Z,23.23
2017-06-28T02:52:34.667Z,23.2
2017-06-28T02:53:15.184Z,23.23
2017-06-28T02:53:55.699Z,23.22
2017-06-28T02:54:36.217Z,23.35
2017-06-28T02:55:16.713Z,23.33
2017-06-28T02:55:57.232Z,23.33
2017-06-28T02:56:37.831Z,23.31
2017-06-28T02:58:36.090Z,23.46
2017-06-28T02:59:16.596Z,23.42
2017-06-28T02:59:57.110Z,23.4
2017-06-28T03:00:37.681Z,23.39
2017-06-28T03:01:18.727Z,23.46
2017-06-28T03:01:59.200Z,23.38
2017-06-28T03:02:39.694Z,23.4
2017-06-28T03:03:20.161Z,23.39
2017-06-28T03:04:00.713Z,23.46
2017-06-28T03:04:41.144Z,23.39
2017-06-28T03:05:21.685Z,23.35
2017-06-28T03:06:02.157Z,23.4
2017-06-28T03:06:42.627Z,23.48
2017-06-28T03:07:23.159Z,23.5
2017-06-28T03:08:03.654Z,23.58
2017-06-28T03:08:44.207Z,23.61
2017-06-28T03:09:24.723Z,23.6
2017-06-28T03:10:05.282Z,23.61
2017-06-28T03:10:45.827Z,23.54
2017-06-28T03:11:26.375Z,23.68
2017-06-28T03:12:06.873Z,23.63
2017-06-28T03:12:47.344Z,23.53
2017-06-28T03:13:27.966Z,23.6
2017-06-28T03:14:08.444Z,23.54
2017-06-28T03:14:48.984Z,23.61
2017-06-28T03:15:29.390Z,23.61
2017-06-28T03:16:09.882Z,23.6
2017-06-28T03:16:50.445Z,23.54
2017-06-28T03:17:30.896Z,23.73
2017-06-28T03:18:11.414Z,23.6
2017-06-28T03:18:51.904Z,23.69
2017-06-28T03:19:32.464Z,23.7
2017-06-28T03:20:12.942Z,23.66
2017-06-28T03:20:53.418Z,23.72
2017-06-28T03:21:34.075Z,23.7
2017-06-28T03:22:14.579Z,23.76
2017-06-28T03:22:55.050Z,23.78
2017-06-28T03:23:35.557Z,23.84
2017-06-28T03:24:16.080Z,23.76
2017-06-28T03:24:56.572Z,23.7
2017-06-28T03:25:37.079Z,23.7
2017-06-28T03:26:17.621Z,23.68
2017-06-28T03:26:58.114Z,23.72
2017-06-28T03:27:38.599Z,23.69
2017-06-28T03:28:19.113Z,23.72
2017-06-28T03:28:59.628Z,23.63
2017-06-28T03:29:40.129Z,23.58
2017-06-28T03:30:20.601Z,23.66
2017-06-28T03:31:01.222Z,23.42
2017-06-28T03:31:41.621Z,23.47
2017-06-28T03:32:22.208Z,23.36
2017-06-28T03:33:02.651Z,23.48
2017-06-28T03:33:43.213Z,23.5
2017-06-28T03:34:23.754Z,23.4
2017-06-28T03:35:04.318Z,23.43
2017-06-28T03:35:44.776Z,23.36
2017-06-28T03:36:25.270Z,23.38
2017-06-28T03:37:05.743Z,23.4
2017-06-28T03:37:46.247Z,23.35
2017-06-28T03:38:26.796Z,23.33
2017-06-28T03:39:07.377Z,23.35
2017-06-28T03:39:47.983Z,23.31
2017-06-28T03:40:28.466Z,23.4
2017-06-28T03:41:08.948Z,23.39
2017-06-28T03:41:49.454Z,23.42
2017-06-28T03:42:30.013Z,23.48
2017-06-28T03:43:10.585Z,23.4
2017-06-28T03:43:51.044Z,23.4
2017-06-28T03:44:31.642Z,23.54
2017-06-28T03:45:12.096Z,23.47
2017-06-28T03:45:52.638Z,23.28
2017-06-28T03:46:33.155Z,23.42
2017-06-28T03:47:13.664Z,23.4
2017-06-28T03:47:54.131Z,23.4
2017-06-28T03:48:34.850Z,23.36
2017-06-28T03:49:15.215Z,23.35
2017-06-28T03:49:55.731Z,23.36
2017-06-28T03:50:36.209Z,23.43
2017-06-28T03:51:16.687Z,23.32
2017-06-28T03:51:57.203Z,23.39
2017-06-28T03:52:37.747Z,23.42
2017-06-28T03:53:18.220Z,23.4
2017-06-28T03:53:58.764Z,23.43
2017-06-28T03:54:39.222Z,23.61
2017-06-28T03:55:19.794Z,23.55
2017-06-28T03:56:00.280Z,23.6
2017-06-28T03:56:40.815Z,23.54
2017-06-28T03:57:21.328Z,23.73
2017-06-28T03:58:01.843Z,23.54
2017-06-28T03:58:42.357Z,23.54
2017-06-28T03:59:22.865Z,23.55
2017-06-28T04:00:03.411Z,23.61
2017-06-28T04:00:43.879Z,23.75
2017-06-28T04:01:24.394Z,23.58
2017-06-28T04:02:04.913Z,23.66
2017-06-28T04:02:45.467Z,23.68
2017-06-28T04:03:25.962Z,23.73
2017-06-28T04:04:06.512Z,23.73
2017-06-28T04:04:46.939Z,23.72
2017-06-28T04:05:27.442Z,23.78
2017-06-28T04:06:07.984Z,23.76
2017-06-28T04:06:48.497Z,23.79
2017-06-28T04:07:29.009Z,23.85
2017-06-28T04:08:09.567Z,23.79
2017-06-28T04:08:50.067Z,23.84
2017-06-28T04:09:30.592Z,23.76
2017-06-28T04:10:11.079Z,23.72
2017-06-28T04:10:52.403Z,23.78
2017-06-28T04:11:32.939Z,23.73
2017-06-28T04:12:13.399Z,23.8
2017-06-28T04:12:53.940Z,23.9
2017-06-28T04:13:34.435Z,23.79
2017-06-28T04:14:14.897Z,23.72
2017-06-28T04:14:55.428Z,23.73
2017-06-28T04:15:35.934Z,23.73
2017-06-28T04:16:16.399Z,23.76
2017-06-28T04:16:56.921Z,23.76
2017-06-28T04:17:37.394Z,23.75
2017-06-28T04:18:17.905Z,23.73
2017-06-28T04:18:58.413Z,23.72
2017-06-28T04:19:38.922Z,23.73
2017-06-28T04:20:19.441Z,23.76
2017-06-28T04:20:59.920Z,23.7
2017-06-28T04:21:40.421Z,23.57
2017-06-28T04:22:20.915Z,23.46
2017-06-28T04:23:01.394Z,23.47
2017-06-28T04:23:42.016Z,23.5
2017-06-28T04:24:22.513Z,23.5
2017-06-28T04:25:03.051Z,23.39
2017-06-28T04:25:43.552Z,23.38
2017-06-28T04:26:24.039Z,23.42
2017-06-28T04:27:04.534Z,23.32
2017-06-28T04:27:45.009Z,23.4
2017-06-28T04:28:25.541Z,23.4
2017-06-28T04:29:06.031Z,23.33
2017-06-28T04:29:46.550Z,23.38
2017-06-28T04:30:27.082Z,23.39
2017-06-28T04:31:07.605Z,23.35
2017-06-28T04:31:48.137Z,23.33
2017-06-28T04:32:28.695Z,23.4
2017-06-28T04:33:09.225Z,23.4
2017-06-28T04:33:49.752Z,23.51
2017-06-28T04:34:30.321Z,23.54
2017-06-28T04:35:11.074Z,23.5
2017-06-28T04:35:51.591Z,23.5
2017-06-28T04:36:32.118Z,23.46
2017-06-28T04:37:12.642Z,23.5
2017-06-28T04:37:53.170Z,23.5
2017-06-28T04:38:33.690Z,23.43
2017-06-28T04:39:14.210Z,23.43
2017-06-28T04:39:54.785Z,23.47
2017-06-28T04:40:35.322Z,23.39
2017-06-28T04:41:16.125Z,23.38
2017-06-28T04:41:56.656Z,23.35
2017-06-28T04:42:37.185Z,23.46
2017-06-28T04:43:17.711Z,23.39
2017-06-28T04:43:58.233Z,23.46
2017-06-28T04:44:38.781Z,23.4
2017-06-28T04:45:19.995Z,23.42
2017-06-28T04:46:00.530Z,23.61
2017-06-28T04:46:41.047Z,23.55
2017-06-28T04:47:21.572Z,23.63
2017-06-28T04:48:03.153Z,23.54
2017-06-28T04:48:43.692Z,23.66
2017-06-28T04:49:24.211Z,23.63
2017-06-28T04:50:04.735Z,23.75
2017-06-28T04:50:45.299Z,23.69
2017-06-28T04:51:25.830Z,23.72
2017-06-28T04:52:06.345Z,23.68
2017-06-28T04:52:46.871Z,23.68
2017-06-28T04:53:27.404Z,23.75
2017-06-28T04:54:07.915Z,23.72
2017-06-28T04:54:48.495Z,23.7
2017-06-28T04:55:29.040Z,23.7
2017-06-28T04:56:09.561Z,23.7
2017-06-28T04:56:50.080Z,23.72
2017-06-28T04:57:30.607Z,23.63
2017-06-28T04:58:11.166Z,23.7
2017-06-28T04:58:51.691Z,23.61
2017-06-28T04:59:32.212Z,23.47
2017-06-28T05:00:12.730Z,23.53
2017-06-28T05:00:53.253Z,23.55
2017-06-28T05:01:33.784Z,23.61
2017-06-28T05:02:14.314Z,23.61
2017-06-28T05:02:54.835Z,23.48
2017-06-28T05:03:35.366Z,23.58
2017-06-28T05:04:15.896Z,23.57
2017-06-28T05:04:56.410Z,23.6
2017-06-28T05:05:36.935Z,23.47
2017-06-28T05:06:17.462Z,23.47
2017-06-28T05:06:57.994Z,23.54
2017-06-28T05:07:38.509Z,23.58
2017-06-28T05:08:19.019Z,23.63
2017-06-28T05:08:59.558Z,23.61
2017-06-28T05:09:40.067Z,23.72
2017-06-28T05:10:20.599Z,23.69
2017-06-28T05:11:01.145Z,23.72
2017-06-28T05:11:41.684Z,23.76
2017-06-28T05:12:24.327Z,23.68
2017-06-28T05:13:04.044Z,23.6
2017-06-28T05:13:44.570Z,23.63
2017-06-28T05:14:25.093Z,23.63
2017-06-28T05:15:05.609Z,23.6
2017-06-28T05:15:46.130Z,23.57
2017-06-28T05:16:26.656Z,23.63
2017-06-28T05:17:07.120Z,23.69
2017-06-28T05:17:47.625Z,23.54
2017-06-28T05:18:28.148Z,23.4
2017-06-28T05:19:09.331Z,23.38
2017-06-28T05:19:49.184Z,23.54
2017-06-28T05:20:29.711Z,23.42
2017-06-28T05:21:10.225Z,23.47
2017-06-28T05:21:50.681Z,23.54
2017-06-28T05:22:31.187Z,23.36
2017-06-28T05:23:11.701Z,23.36
2017-06-28T05:23:52.268Z,23.48
2017-06-28T05:24:32.801Z,23.53
2017-06-28T05:25:13.315Z,23.57
2017-06-28T05:25:53.841Z,23.51
2017-06-28T05:26:34.355Z,23.6
2017-06-28T05:27:14.878Z,23.72
2017-06-28T05:27:55.388Z,23.7
2017-06-28T05:28:35.908Z,23.83
2017-06-28T05:29:16.421Z,23.91
2017-06-28T05:29:56.943Z,23.9
2017-06-28T05:30:37.454Z,23.93
2017-06-28T05:31:17.986Z,23.87
2017-06-28T05:31:58.542Z,23.97
2017-06-28T05:32:39.093Z,23.97
2017-06-28T05:33:19.608Z,24.03
2017-06-28T05:34:00.111Z,24
2017-06-28T05:34:40.636Z,23.98
2017-06-28T05:35:21.139Z,23.97
2017-06-28T05:36:01.651Z,24.05
2017-06-28T05:36:42.123Z,24.03
2017-06-28T05:37:22.591Z,24.03
2017-06-28T05:38:03.110Z,24.06
2017-06-28T05:38:43.634Z,24.05
2017-06-28T05:39:24.183Z,23.97
2017-06-28T05:40:04.674Z,24
2017-06-28T05:40:45.209Z,24.02
2017-06-28T05:41:25.730Z,24.03
2017-06-28T05:42:06.233Z,23.98
2017-06-28T05:42:46.769Z,23.87
2017-06-28T05:43:27.854Z,23.78
2017-06-28T05:44:07.816Z,23.75
2017-06-28T05:44:48.848Z,23.72
2017-06-28T05:45:29.015Z,23.75
2017-06-28T05:46:09.413Z,23.72
2017-06-28T05:46:49.961Z,23.69
2017-06-28T05:47:30.491Z,23.75
2017-06-28T05:48:11.001Z,23.72
2017-06-28T05:48:51.523Z,23.83
2017-06-28T05:49:32.048Z,23.84
2017-06-28T05:50:12.569Z,23.88
2017-06-28T05:50:53.092Z,23.94
2017-06-28T05:51:33.617Z,23.93
2017-06-28T05:52:14.151Z,24.06
2017-06-28T05:52:54.674Z,23.94
2017-06-28T05:53:35.261Z,24.03
2017-06-28T05:54:15.788Z,23.83
2017-06-28T05:54:56.283Z,23.87
2017-06-28T05:55:36.810Z,23.87
2017-06-28T05:56:17.330Z,23.9
2017-06-28T05:56:57.861Z,23.98
2017-06-28T05:57:38.384Z,24.02
2017-06-28T05:58:18.911Z,24.03
2017-06-28T05:58:59.441Z,23.98
2017-06-28T05:59:39.972Z,23.95
2017-06-28T06:00:20.510Z,23.91
2017-06-28T06:01:01.041Z,23.95
2017-06-28T06:01:41.580Z,23.97
2017-06-28T06:02:22.095Z,24.09
2017-06-28T06:03:02.588Z,24.08
2017-06-28T06:03:43.125Z,24.02
2017-06-28T06:04:23.642Z,24.03
2017-06-28T06:05:04.181Z,24
2017-06-28T06:05:44.698Z,24.02
2017-06-28T06:06:25.219Z,24.06
2017-06-28T06:07:05.779Z,24.12
2017-06-28T06:07:46.302Z,24.16
2017-06-28T06:08:26.832Z,24.13
2017-06-28T06:09:07.356Z,24.13
2017-06-28T06:09:47.883Z,24.28
2017-06-28T06:10:28.414Z,24.28
2017-06-28T06:11:08.927Z,24.31
2017-06-28T06:11:49.488Z,24.45
2017-06-28T06:12:29.998Z,24.31
2017-06-28T06:13:10.532Z,24.39
2017-06-28T06:13:51.056Z,24.52
2017-06-28T06:14:31.574Z,24.64
2017-06-28T06:15:12.108Z,24.69
2017-06-28T06:15:52.623Z,24.68
2017-06-28T06:16:33.150Z,24.81
2017-06-28T06:17:13.685Z,24.88
2017-06-28T06:17:54.306Z,24.9
2017-06-28T06:18:34.715Z,24.9
2017-06-28T06:19:15.249Z,24.9
2017-06-28T06:19:55.765Z,24.87
2017-06-28T06:20:36.273Z,24.95
2017-06-28T06:21:16.785Z,25
2017-06-28T06:21:57.367Z,25.03
2017-06-28T06:22:37.937Z,25.03
2017-06-28T06:23:18.460Z,25.15
2017-06-28T06:23:59.005Z,25.25
2017-06-28T06:24:39.559Z,25.27
2017-06-28T06:25:20.068Z,25.28
2017-06-28T06:26:00.592Z,25.23
2017-06-28T06:26:41.111Z,25.18
2017-06-28T06:27:21.637Z,25.21
2017-06-28T06:28:02.171Z,25.27
2017-06-28T06:28:43.616Z,25.28
2017-06-28T06:29:24.150Z,25.33
2017-06-28T06:30:04.669Z,25.33
2017-06-28T06:30:45.252Z,25.27
2017-06-28T06:31:25.757Z,25.38
2017-06-28T06:32:06.273Z,25.35
2017-06-28T06:32:46.766Z,25.33
2017-06-28T06:33:27.266Z,25.33
2017-06-28T06:34:07.793Z,25.35
2017-06-28T06:34:48.316Z,25.32
2017-06-28T06:35:28.836Z,25
2017-06-28T06:36:09.396Z,25.15
2017-06-28T06:36:49.932Z,25.18
2017-06-28T06:37:31.372Z,25.38
2017-06-28T06:39:28.752Z,25.32
2017-06-28T06:40:09.264Z,25.25
2017-06-28T06:40:49.799Z,25.32
2017-06-28T06:41:30.317Z,25.35
2017-06-28T06:42:10.843Z,25.45
2017-06-28T06:42:51.385Z,25.36
2017-06-28T06:43:31.902Z,25.46
2017-06-28T06:44:12.419Z,25.51
2017-06-28T06:44:52.944Z,25.38
2017-06-28T06:45:33.455Z,25.28
2017-06-28T06:46:13.983Z,25.33
2017-06-28T06:46:54.506Z,25.35
2017-06-28T06:47:35.049Z,25.33
2017-06-28T06:48:15.808Z,25.39
2017-06-28T06:48:56.078Z,25.52
2017-06-28T06:49:36.604Z,25.51
2017-06-28T06:50:17.116Z,25.55
2017-06-28T06:50:57.637Z,25.55
2017-06-28T06:51:38.160Z,25.46
2017-06-28T06:52:18.701Z,25.52
2017-06-28T06:52:59.239Z,25.4
2017-06-28T06:53:39.874Z,25.32
2017-06-28T06:54:20.405Z,25.32
2017-06-28T06:55:00.948Z,25.23
2017-06-28T06:55:41.463Z,25.06
2017-06-28T06:56:21.965Z,24.91
2017-06-28T06:57:02.499Z,24.96
2017-06-28T06:57:43.036Z,25.1
2017-06-28T06:58:23.541Z,25.06
2017-06-28T06:59:04.317Z,25.08
2017-06-28T06:59:44.975Z,24.95
2017-06-28T07:00:25.492Z,25
2017-06-28T07:01:06.015Z,24.99
2017-06-28T07:01:46.551Z,25.08
2017-06-28T07:02:27.069Z,25.21
2017-06-28T07:03:07.611Z,25.21
2017-06-28T07:03:48.151Z,25.27
2017-06-28T07:04:28.670Z,25.38
2017-06-28T07:06:21.347Z,25.33
2017-06-28T07:07:01.861Z,25.43
2017-06-28T07:07:42.365Z,25.46
2017-06-28T07:08:22.884Z,25.58
2017-06-28T07:09:03.639Z,25.67
2017-06-28T07:11:16.976Z,25.91
2017-06-28T07:11:57.489Z,25.87
2017-06-28T07:12:38.010Z,25.79
2017-06-28T07:13:18.606Z,25.8
2017-06-28T07:13:59.115Z,25.79
2017-06-28T07:14:39.621Z,25.75
2017-06-28T07:15:20.195Z,25.92
2017-06-28T07:16:00.952Z,25.91
2017-06-28T07:16:41.438Z,25.91
2017-06-28T07:17:22.012Z,26.13
2017-06-28T07:18:02.493Z,26.2
2017-06-28T07:18:43.566Z,26.33
2017-06-28T07:19:24.116Z,26.36
2017-06-28T07:20:04.600Z,26.54
2017-06-28T07:20:45.111Z,26.63
2017-06-28T07:21:25.619Z,26.81
2017-06-28T07:22:06.128Z,26.94
2017-06-28T07:22:46.632Z,26.95
2017-06-28T07:23:27.148Z,26.95
2017-06-28T07:24:07.670Z,27.21
2017-06-28T07:24:48.193Z,27.27
2017-06-28T07:25:28.730Z,27.12
2017-06-28T07:26:09.230Z,27.24
2017-06-28T07:26:49.745Z,27.31
2017-06-28T07:27:30.256Z,27.43
2017-06-28T07:28:10.788Z,27.41
2017-06-28T07:28:51.328Z,27.39
2017-06-28T07:29:31.872Z,27.44
2017-06-28T07:30:12.389Z,27.46
2017-06-28T07:30:52.902Z,27.57
2017-06-28T07:31:33.671Z,27.51
2017-06-28T07:32:14.093Z,27.47
2017-06-28T07:32:54.609Z,27.41
2017-06-28T07:33:35.141Z,27.25
2017-06-28T07:34:15.592Z,27.04
2017-06-28T07:34:56.055Z,27
2017-06-28T07:35:36.554Z,26.89
2017-06-28T07:36:17.071Z,26.66
2017-06-28T07:36:57.558Z,26.58
2017-06-28T07:37:38.121Z,26.52
2017-06-28T07:38:18.622Z,26.55
2017-06-28T07:38:59.144Z,26.4
2017-06-28T07:39:39.676Z,26.36
2017-06-28T07:40:20.179Z,26.43
2017-06-28T07:41:00.687Z,26.23
2017-06-28T07:41:41.188Z,26.02
2017-06-28T07:42:21.699Z,25.98
2017-06-28T07:43:02.213Z,26.09
2017-06-28T07:43:42.737Z,26.25
2017-06-28T07:44:23.261Z,26.25
2017-06-28T07:45:03.789Z,26.35
2017-06-28T07:45:44.330Z,26.3
2017-06-28T07:46:24.847Z,25.95
2017-06-28T07:47:05.371Z,25.88
2017-06-28T07:47:45.885Z,26.09
2017-06-28T07:48:26.418Z,26.1
2017-06-28T07:49:06.936Z,26.32
2017-06-28T07:49:47.468Z,26.09
2017-06-28T07:50:27.994Z,26.28
2017-06-28T07:51:08.521Z,26.35
2017-06-28T07:51:49.044Z,26.35
2017-06-28T07:52:29.562Z,26.29
2017-06-28T07:53:10.165Z,26.07
2017-06-28T07:53:50.594Z,26.06
2017-06-28T07:54:31.141Z,26.01
2017-06-28T07:55:11.846Z,26.01
2017-06-28T07:55:52.379Z,26.25
2017-06-28T07:56:33.166Z,26.51
2017-06-28T07:57:13.708Z,26.54
2017-06-28T07:57:54.230Z,26.52
2017-06-28T07:58:35.308Z,26.63
2017-06-28T07:59:15.944Z,26.7
2017-06-28T07:59:56.462Z,26.76
2017-06-28T08:00:37.009Z,26.77
2017-06-28T08:01:17.527Z,26.58
2017-06-28T08:01:58.146Z,26.39
2017-06-28T08:02:38.731Z,26.36
2017-06-28T08:03:19.241Z,26.37
2017-06-28T08:03:59.733Z,26.52
2017-06-28T08:04:40.226Z,26.55
2017-06-28T08:05:20.747Z,26.26
2017-06-28T08:06:01.275Z,26.26
2017-06-28T08:06:41.795Z,26.36
2017-06-28T08:07:22.308Z,26.29
2017-06-28T08:08:02.842Z,26.29
2017-06-28T08:08:43.378Z,26.26
2017-06-28T08:09:23.893Z,26.32
2017-06-28T08:10:04.395Z,26.21
2017-06-28T08:10:44.938Z,26.25
2017-06-28T08:11:25.464Z,26.21
2017-06-28T08:12:05.964Z,26.3
2017-06-28T08:12:46.566Z,26.26
2017-06-28T08:13:26.978Z,26.43
2017-06-28T08:14:07.506Z,26.3
2017-06-28T08:14:48.048Z,26.39
2017-06-28T08:15:28.570Z,26.6
2017-06-28T08:16:09.106Z,26.51
2017-06-28T08:16:49.674Z,26.37
2017-06-28T08:17:30.263Z,26.52
2017-06-28T08:18:10.793Z,26.45
2017-06-28T08:18:51.295Z,26.44
2017-06-28T08:19:31.826Z,26.39
2017-06-28T08:20:12.464Z,26.35
2017-06-28T08:20:52.929Z,26.21
2017-06-28T08:21:33.444Z,25.92
2017-06-28T08:22:13.975Z,25.76
2017-06-28T08:22:54.494Z,25.91
2017-06-28T08:23:35.083Z,25.85
2017-06-28T08:24:15.750Z,25.77
2017-06-28T08:24:56.289Z,25.87
2017-06-28T08:25:36.846Z,25.75
2017-06-28T08:26:17.428Z,25.91
2017-06-28T08:26:57.958Z,25.97
2017-06-28T08:27:38.472Z,25.92
2017-06-28T08:28:18.989Z,25.94
2017-06-28T08:28:59.498Z,25.69
2017-06-28T08:29:40.046Z,25.65
2017-06-28T08:30:20.562Z,25.73
2017-06-28T08:31:01.052Z,25.75
2017-06-28T08:31:41.590Z,25.67
2017-06-28T08:32:22.072Z,25.54
2017-06-28T08:33:02.580Z,25.45
2017-06-28T08:33:43.086Z,25.3
2017-06-28T08:34:23.775Z,25.55
2017-06-28T08:35:04.148Z,25.57
2017-06-28T08:35:44.677Z,25.55
2017-06-28T08:36:25.196Z,25.45
2017-06-28T08:37:05.693Z,25.43
2017-06-28T08:37:46.332Z,25.51
2017-06-28T08:38:26.769Z,25.62
2017-06-28T08:39:07.267Z,25.7
2017-06-28T08:39:47.824Z,25.87
2017-06-28T08:40:28.330Z,25.91
2017-06-28T08:41:08.812Z,25.91
2017-06-28T08:41:49.310Z,25.73
2017-06-28T08:42:29.851Z,25.92
2017-06-28T08:43:10.349Z,26.02
2017-06-28T08:43:51.569Z,26.01
2017-06-28T08:44:31.865Z,26.21
2017-06-28T08:45:12.246Z,26.28
2017-06-28T08:45:52.825Z,26.39
2017-06-28T08:46:33.336Z,26.29
2017-06-28T08:47:13.880Z,26.23
2017-06-28T08:47:54.349Z,26.3
2017-06-28T08:48:34.840Z,26.26
2017-06-28T08:49:15.363Z,26.1
2017-06-28T08:49:55.925Z,26.28
2017-06-28T08:50:36.393Z,26.33
2017-06-28T08:51:16.933Z,26.37
2017-06-28T08:51:57.707Z,26.29
2017-06-28T08:52:38.276Z,26.23
2017-06-28T08:53:18.851Z,26.36
2017-06-28T08:53:59.306Z,26.44
2017-06-28T08:54:39.873Z,26.45
2017-06-28T08:55:20.343Z,26.55
2017-06-28T08:56:00.814Z,26.58
2017-06-28T08:56:41.566Z,26.58
2017-06-28T08:57:22.169Z,26.5